Terminal Aerodrome Forecast
Issued by NWS

Home | Current Version | Previous Version | Text Only | Print | Product List | Glossary On
Versions: 1 2 3 4 5 6 7 8 9 10 11 12 13 14 15 16 17 18 19 20 21 22 23 24 25 26 27 28 29 30 31 32 33 34 35 36 37 38 39 40 41 42 43 44 45 46 47
245
FTUS43 KPAH 291120
TAFOWB
TAF
KOWB 291120Z 2912/3012 00000KT P6SM BKN100
      TEMPO 2912/2913 5SM BR SCT005 BKN030
     FM291400 VRB03KT P6SM BKN015
     FM291700 VRB04KT P6SM BKN030
     FM300000 VRB02KT P6SM SCT040 BKN080
     FM300800 00000KT 5SM BR SCT080=

USA.gov is the U.S. government's official web portal to all federal, state and local government web resources and services.